首页
METAR-TAF:

METAR-TAF

机场 :

Massena, 紐約州, 美国

纬度: 44-56-09N, 经度: 074-50-44W, 海拔: 66米

当前天气观测

该预报发布于22分钟前的10:53 UTC
风速8节,风向西南
温度 19°C
湿度 78%
气压 1019 hPa
能見度: 16.1公里
天空无云

METAR: KMSS 271053Z AUTO 22008KT 10SM CLR 19/15 A3010 RMK AO2 SLP192 T01890150

时间: 07:15 (11:15 UTC)

预报

该预报发布于5小时和44分钟前的05:31 UTC
预报有效从27日的 06点(UTC)到 28日的 06点(UTC)
风速10节,风向西转西南
能見度: 10公里
少量云层高于25000英尺
从 27日的 1800点(UTC)
风速10节,风向西
能見度: 10公里
散云层高于6000英尺
从 27日的 2100点(UTC)
风速10节,风向西转西南
能見度: 10公里
散云层高于5000英尺
附近有阵雨

TAF: KMSS 270531Z 2706/2806 24010KT P6SM FEW250 FM271800 26010KT P6SM SCT060 FM272100 25010KT P6SM VCSH SCT050

超过4000个机场的气象观测和天气预报(METAR&TAF报告)。

可查询的气象台以黄色和红色小点在地图上表示。

将鼠标移到小点上方,可查看气象台名称。

然后点击查看天气观测和预报。

如需切换地图:点击带黑十字的绿色按钮放大地图;点击带横线的绿色按钮缩小地图;或者点击绿色箭头查看邻近地区的地图。


METAR-TAF: